CDT,Max TemperatureF,Mean TemperatureF,Min TemperatureF,Max Dew PointF,MeanDew PointF,Min DewpointF,Max Humidity, Mean Humidity, Min Humidity, Max Sea Level PressureIn, Mean Sea Level PressureIn, Min Sea Level PressureIn, Max VisibilityMiles, Mean VisibilityMiles, Min VisibilityMiles, Max Wind SpeedMPH, Mean Wind SpeedMPH, Max Gust SpeedMPH,PrecipitationIn, CloudCover, Events, WindDirDegrees
2014-8-1,80,70,59,66,61,57,100,75,45,30.12,30.09,30.07,10,10,6,8,3,,0.00,1,,285
2014-8-2,82,71,60,68,63,57,94,72,42,30.18,30.14,30.10,10,10,5,10,5,13,0.00,1,,208
2014-8-3,82,72,62,70,65,61,94,77,54,30.16,30.11,30.06,10,10,5,8,4,,0.00,0,,166
2014-8-4,82,74,66,72,67,63,100,81,51,30.10,30.07,30.03,10,10,5,8,4,14,0.00,1,Rain,12
2014-8-5,75,67,59,66,64,57,100,87,69,30.13,30.10,30.06,10,10,7,10,5,,0.00,1,,27
2014-8-6,68,67,66,66,65,64,100,95,88,30.10,30.07,30.04,10,6,2,9,4,15,0.26,6,Rain,118
2014-8-7,75,70,66,66,64,63,100,82,65,30.05,30.03,30.01,10,9,6,17,8,23,0.00,6,,104
2014-8-8,78,72,66,64,63,61,94,77,57,30.09,30.06,30.03,10,10,8,14,6,17,0.00,5,,109
2014-8-9,78,72,66,66,64,61,94,78,61,30.11,30.07,30.04,10,10,8,13,6,17,0.00,3,,132
2014-8-10,78,72,66,70,66,63,100,85,65,30.08,30.05,30.01,10,9,3,10,5,,0.03,5,,167
2014-8-11,75,68,60,66,60,54,100,76,50,30.07,30.04,30.02,10,10,5,18,10,32,0.00,2,,327
2014-8-12,75,64,53,57,54,50,94,70,41,30.13,30.09,30.06,10,10,5,14,8,23,0.00,1,,329
2014-8-13,80,68,55,64,57,52,94,70,45,30.15,30.11,30.08,10,10,6,8,5,14,0.00,0,,276
2014-8-14,77,67,57,66,62,55,100,81,61,30.13,30.08,29.99,10,10,7,9,4,13,0.00,0,,155
2014-8-15,73,70,66,70,66,64,100,93,78,30.01,29.97,29.91,10,9,4,16,8,23,0.07,4,Rain,160
2014-8-16,82,74,66,72,69,66,100,89,66,29.95,29.90,29.88,10,6,0,8,4,,0.00,5,Fog,133
2014-8-17,84,74,64,72,70,64,100,85,66,30.00,29.94,29.88,10,8,0,15,6,20,0.00,3,Fog,197
2014-8-18,86,77,68,72,69,64,100,78,51,29.91,29.81,29.70,10,9,2,13,8,16,0.00,2,,219
2014-8-19,82,72,62,66,64,61,100,78,54,29.84,29.79,29.74,10,10,7,13,7,15,0.00,1,,283
2014-8-20,77,70,62,72,67,61,100,91,78,29.88,29.85,29.81,10,10,5,16,5,20,0.02,1,Rain,148
2014-8-21,86,78,69,75,73,70,100,85,62,29.88,29.82,29.74,10,9,2,20,11,28,0.62,2,Rain,178
2014-8-22,84,76,69,75,73,70,100,89,70,30.00,29.94,29.87,10,7,0,12,4,16,0.00,3,Fog,34
2014-8-23,82,75,68,73,71,68,100,90,74,29.99,29.92,29.87,10,8,0,31,9,37,1.25,4,Rain,107
2014-8-24,86,78,71,75,73,70,100,85,62,29.93,29.86,29.83,10,9,2,18,12,26,0.06,3,Rain,180
2014-8-25,78,71,64,70,64,57,100,80,50,30.09,30.00,29.89,10,10,5,14,5,18,0.00,1,,327
2014-8-26,71,65,59,63,58,52,94,77,60,30.25,30.16,30.08,10,10,10,13,7,22,0.00,3,,14
2014-8-27,75,66,57,64,60,57,100,81,65,30.23,30.16,30.10,10,10,9,9,5,12,0.00,2,,104
2014-8-28,73,68,64,72,67,61,100,95,83,30.12,29.99,29.88,10,6,1,14,8,20,1.02,8,Rain,130
2014-8-29,77,72,68,72,69,66,100,91,78,29.88,29.81,29.77,10,9,3,20,12,26,0.36,4,Rain,199
2014-8-30,75,68,62,68,65,61,100,89,65,29.92,29.87,29.79,10,9,1,10,5,14,0.00,5,,288
2014-8-31,84,72,60,72,65,61,100,88,62,29.89,29.79,29.65,10,9,0,22,9,31,1.54,2,Rain,165